SWA179 KBWI-KMHT
Flight info
| Callsign | SWA179 |
|---|---|
| Flight time | 0h 59m |
| Altitude | 33000 |
| Route | DUKPN1 BROSS Q419 RBV Q22 LLUND SMYTH ROZZE2 |
| Aircraft | B738/M-SDE2E3FGHIRWXY/LB1 |
Departure
| Time | 2026-04-29 16:40 |
|---|---|
| Airport | Baltimore/Washington International Thurgood Marshall Airport (KBWI) |
Arrival
| Time | 2026-04-29 17:39 |
|---|---|
| Airport | Manchester-Boston Regional Airport (KMHT) |
| Time | Latitude | Longitude | Altitude | Speed | Heading |
|---|---|---|---|---|---|
| 2026-04-29 16:14 | 39.17736 | -76.66942 | 149 ft | 0 kts | 236° |
| 2026-04-29 16:30 | 39.17740 | -76.66935 | 149 ft | 2 kts | 234° |
| 2026-04-29 16:30 | 39.17749 | -76.66920 | 149 ft | 2 kts | 236° |
| 2026-04-29 16:31 | 39.17754 | -76.66909 | 149 ft | 2 kts | 236° |
| 2026-04-29 16:31 | 39.17765 | -76.66897 | 149 ft | 2 kts | 198° |
| 2026-04-29 16:31 | 39.17780 | -76.66894 | 149 ft | 2 kts | 169° |
| 2026-04-29 16:31 | 39.17790 | -76.66900 | 149 ft | 0 kts | 147° |
| 2026-04-29 16:32 | 39.17787 | -76.66897 | 149 ft | 3 kts | 148° |
| 2026-04-29 16:32 | 39.17750 | -76.66863 | 149 ft | 6 kts | 144° |
| 2026-04-29 16:32 | 39.17725 | -76.66840 | 149 ft | 1 kts | 144° |
| 2026-04-29 16:32 | 39.17723 | -76.66838 | 149 ft | 0 kts | 144° |
| 2026-04-29 16:34 | 39.17719 | -76.66835 | 149 ft | 3 kts | 144° |
| 2026-04-29 16:34 | 39.17682 | -76.66801 | 149 ft | 8 kts | 144° |
| 2026-04-29 16:34 | 39.17621 | -76.66776 | 148 ft | 11 kts | 181° |
| 2026-04-29 16:34 | 39.17538 | -76.66798 | 146 ft | 11 kts | 215° |
| 2026-04-29 16:35 | 39.17479 | -76.66865 | 146 ft | 10 kts | 241° |
| 2026-04-29 16:35 | 39.17476 | -76.66972 | 146 ft | 14 kts | 283° |
| 2026-04-29 16:35 | 39.17530 | -76.67091 | 144 ft | 16 kts | 317° |
| 2026-04-29 16:35 | 39.17622 | -76.67180 | 142 ft | 16 kts | 324° |
| 2026-04-29 16:36 | 39.17717 | -76.67267 | 141 ft | 16 kts | 324° |
| 2026-04-29 16:36 | 39.17813 | -76.67355 | 139 ft | 16 kts | 324° |
| 2026-04-29 16:36 | 39.17907 | -76.67443 | 137 ft | 16 kts | 323° |
| 2026-04-29 16:36 | 39.18003 | -76.67531 | 135 ft | 16 kts | 324° |
| 2026-04-29 16:37 | 39.18088 | -76.67609 | 136 ft | 13 kts | 324° |
| 2026-04-29 16:37 | 39.18168 | -76.67684 | 136 ft | 14 kts | 324° |
| 2026-04-29 16:37 | 39.18262 | -76.67770 | 136 ft | 18 kts | 324° |
| 2026-04-29 16:37 | 39.18330 | -76.67833 | 136 ft | 17 kts | 324° |
| 2026-04-29 16:38 | 39.18453 | -76.67948 | 134 ft | 11 kts | 324° |
| 2026-04-29 16:38 | 39.18516 | -76.68006 | 133 ft | 10 kts | 324° |
| 2026-04-29 16:38 | 39.18566 | -76.68072 | 130 ft | 10 kts | 288° |
| 2026-04-29 16:38 | 39.18542 | -76.68161 | 125 ft | 10 kts | 217° |
| 2026-04-29 16:39 | 39.18489 | -76.68154 | 127 ft | 5 kts | 144° |
| 2026-04-29 16:39 | 39.18453 | -76.68121 | 128 ft | 14 kts | 144° |
| 2026-04-29 16:39 | 39.18195 | -76.67884 | 132 ft | 79 kts | 144° |
| 2026-04-29 16:39 | 39.17561 | -76.67293 | 141 ft | 140 kts | 143° |
| 2026-04-29 16:40 | 39.16670 | -76.66471 | 430 ft | 164 kts | 144° |
| 2026-04-29 16:40 | 39.15831 | -76.65511 | 1122 ft | 166 kts | 127° |
| 2026-04-29 16:40 | 39.15340 | -76.64164 | 1637 ft | 174 kts | 113° |
| 2026-04-29 16:40 | 39.14901 | -76.62656 | 2078 ft | 185 kts | 116° |
| 2026-04-29 16:41 | 39.14365 | -76.61144 | 2723 ft | 185 kts | 118° |
| 2026-04-29 16:41 | 39.13832 | -76.59662 | 3347 ft | 186 kts | 118° |
| 2026-04-29 16:41 | 39.13307 | -76.58150 | 3919 ft | 189 kts | 118° |
| 2026-04-29 16:41 | 39.12761 | -76.56570 | 4470 ft | 194 kts | 118° |
| 2026-04-29 16:42 | 39.12209 | -76.54987 | 5024 ft | 198 kts | 118° |
| 2026-04-29 16:42 | 39.11630 | -76.53336 | 5440 ft | 211 kts | 118° |
| 2026-04-29 16:42 | 39.11008 | -76.51557 | 5779 ft | 228 kts | 118° |
| 2026-04-29 16:42 | 39.10340 | -76.49621 | 6194 ft | 244 kts | 117° |
| 2026-04-29 16:43 | 39.09638 | -76.47543 | 6600 ft | 260 kts | 114° |
| 2026-04-29 16:43 | 39.09235 | -76.45197 | 7012 ft | 280 kts | 92° |
| 2026-04-29 16:43 | 39.09622 | -76.42715 | 7605 ft | 289 kts | 71° |
| 2026-04-29 16:43 | 39.10352 | -76.40311 | 8287 ft | 294 kts | 69° |
| 2026-04-29 16:44 | 39.11111 | -76.37872 | 9114 ft | 293 kts | 69° |
| 2026-04-29 16:44 | 39.11824 | -76.35433 | 9872 ft | 295 kts | 70° |
| 2026-04-29 16:44 | 39.12512 | -76.32937 | 10571 ft | 300 kts | 72° |
| 2026-04-29 16:44 | 39.13200 | -76.30380 | 11214 ft | 306 kts | 72° |
| 2026-04-29 16:45 | 39.13891 | -76.27796 | 11989 ft | 308 kts | 72° |
| 2026-04-29 16:45 | 39.14588 | -76.25185 | 12629 ft | 315 kts | 72° |
| 2026-04-29 16:45 | 39.15237 | -76.22495 | 13319 ft | 318 kts | 77° |
| 2026-04-29 16:45 | 39.15681 | -76.19623 | 13737 ft | 333 kts | 83° |
| 2026-04-29 16:46 | 39.16011 | -76.16627 | 14097 ft | 349 kts | 84° |
| 2026-04-29 16:46 | 39.16328 | -76.13478 | 14473 ft | 365 kts | 84° |
| 2026-04-29 16:46 | 39.16668 | -76.10186 | 14891 ft | 380 kts | 83° |
| 2026-04-29 16:46 | 39.17040 | -76.06736 | 15214 ft | 397 kts | 83° |
| 2026-04-29 16:47 | 39.17446 | -76.03115 | 15517 ft | 414 kts | 82° |
| 2026-04-29 16:47 | 39.17887 | -75.99243 | 16147 ft | 422 kts | 82° |
| 2026-04-29 16:47 | 39.18344 | -75.95286 | 16784 ft | 429 kts | 81° |
| 2026-04-29 16:47 | 39.19021 | -75.91283 | 17437 ft | 435 kts | 72° |
| 2026-04-29 16:48 | 39.20261 | -75.87719 | 18093 ft | 437 kts | 56° |
| 2026-04-29 16:48 | 39.22167 | -75.84721 | 18695 ft | 437 kts | 41° |
| 2026-04-29 16:48 | 39.24421 | -75.82104 | 19360 ft | 439 kts | 37° |
| 2026-04-29 16:48 | 39.26766 | -75.79558 | 19920 ft | 444 kts | 36° |
| 2026-04-29 16:49 | 39.29168 | -75.76990 | 20493 ft | 449 kts | 36° |
| 2026-04-29 16:49 | 39.31545 | -75.74441 | 21126 ft | 452 kts | 36° |
| 2026-04-29 16:49 | 39.33984 | -75.71812 | 21648 ft | 457 kts | 36° |
| 2026-04-29 16:49 | 39.36435 | -75.69155 | 22209 ft | 461 kts | 36° |
| 2026-04-29 16:50 | 39.38868 | -75.66506 | 22764 ft | 464 kts | 36° |
| 2026-04-29 16:50 | 39.41323 | -75.63824 | 23292 ft | 468 kts | 36° |
| 2026-04-29 16:50 | 39.43803 | -75.61109 | 23848 ft | 471 kts | 36° |
| 2026-04-29 16:50 | 39.46340 | -75.58326 | 24243 ft | 478 kts | 36° |
| 2026-04-29 16:51 | 39.48856 | -75.55561 | 24869 ft | 479 kts | 36° |
| 2026-04-29 16:51 | 39.51423 | -75.52736 | 25237 ft | 486 kts | 36° |
| 2026-04-29 16:51 | 39.53978 | -75.49920 | 25736 ft | 490 kts | 36° |
| 2026-04-29 16:51 | 39.56686 | -75.46930 | 26300 ft | 492 kts | 35° |
| 2026-04-29 16:52 | 39.59530 | -75.43783 | 26781 ft | 497 kts | 36° |
| 2026-04-29 16:52 | 39.62390 | -75.40610 | 27291 ft | 501 kts | 36° |
| 2026-04-29 16:52 | 39.65266 | -75.37410 | 27783 ft | 504 kts | 35° |
| 2026-04-29 16:52 | 39.68162 | -75.34190 | 28383 ft | 505 kts | 36° |
| 2026-04-29 16:53 | 39.70960 | -75.31074 | 29060 ft | 503 kts | 36° |
| 2026-04-29 16:53 | 39.73695 | -75.28021 | 29895 ft | 496 kts | 35° |
| 2026-04-29 16:53 | 39.76437 | -75.24958 | 30562 ft | 493 kts | 34° |
| 2026-04-29 16:53 | 39.79210 | -75.21777 | 31169 ft | 493 kts | 37° |
| 2026-04-29 16:54 | 39.81870 | -75.18317 | 31695 ft | 495 kts | 40° |
| 2026-04-29 16:54 | 39.84421 | -75.14658 | 32221 ft | 496 kts | 42° |
| 2026-04-29 16:54 | 39.86858 | -75.10990 | 32794 ft | 493 kts | 43° |
| 2026-04-29 16:54 | 39.89260 | -75.07315 | 32995 ft | 498 kts | 43° |
| 2026-04-29 16:55 | 39.94045 | -74.99985 | 33013 ft | 503 kts | 42° |
| 2026-04-29 16:55 | 39.98642 | -74.92458 | 33012 ft | 505 kts | 47° |
| 2026-04-29 16:56 | 40.02586 | -74.84882 | 33000 ft | 510 kts | 51° |
| 2026-04-29 16:56 | 40.06432 | -74.77134 | 32984 ft | 507 kts | 51° |
| 2026-04-29 16:57 | 40.10259 | -74.69438 | 33016 ft | 508 kts | 50° |
| 2026-04-29 16:57 | 40.14124 | -74.61729 | 32990 ft | 509 kts | 50° |
| 2026-04-29 16:58 | 40.18012 | -74.54090 | 33024 ft | 504 kts | 49° |
| 2026-04-29 16:58 | 40.22399 | -74.47150 | 33028 ft | 493 kts | 37° |
| 2026-04-29 16:59 | 40.27537 | -74.41269 | 33006 ft | 484 kts | 31° |
| 2026-04-29 16:59 | 40.32779 | -74.35833 | 33005 ft | 484 kts | 30° |
| 2026-04-29 17:00 | 40.38077 | -74.30339 | 32997 ft | 485 kts | 31° |
| 2026-04-29 17:00 | 40.43367 | -74.24766 | 33016 ft | 488 kts | 32° |
| 2026-04-29 17:01 | 40.48639 | -74.19136 | 33028 ft | 488 kts | 32° |
| 2026-04-29 17:01 | 40.53899 | -74.13475 | 33026 ft | 486 kts | 32° |
| 2026-04-29 17:02 | 40.59243 | -74.07703 | 33032 ft | 487 kts | 32° |
| 2026-04-29 17:02 | 40.64634 | -74.01868 | 33013 ft | 488 kts | 32° |
| 2026-04-29 17:03 | 40.70005 | -73.96032 | 33030 ft | 483 kts | 32° |
| 2026-04-29 17:03 | 40.75277 | -73.90304 | 33014 ft | 486 kts | 32° |
| 2026-04-29 17:04 | 40.80533 | -73.84592 | 33014 ft | 486 kts | 31° |
| 2026-04-29 17:04 | 40.86145 | -73.79987 | 33030 ft | 465 kts | 12° |
| 2026-04-29 17:05 | 40.89355 | -73.78924 | 33029 ft | 448 kts | 359° |
| 2026-04-29 17:05 | 40.92422 | -73.78677 | 33011 ft | 439 kts | 351° |
| 2026-04-29 17:05 | 40.98539 | -73.78901 | 33019 ft | 438 kts | 348° |
| 2026-04-29 17:06 | 41.04729 | -73.79317 | 33010 ft | 438 kts | 348° |
| 2026-04-29 17:06 | 41.10995 | -73.79741 | 33008 ft | 440 kts | 348° |
| 2026-04-29 17:07 | 41.17435 | -73.80157 | 33002 ft | 438 kts | 348° |
| 2026-04-29 17:07 | 41.23558 | -73.80542 | 33000 ft | 437 kts | 348° |
| 2026-04-29 17:08 | 41.29675 | -73.80921 | 32994 ft | 438 kts | 348° |
| 2026-04-29 17:08 | 41.35916 | -73.81309 | 32996 ft | 441 kts | 348° |
| 2026-04-29 17:09 | 41.42490 | -73.81716 | 32992 ft | 438 kts | 348° |
| 2026-04-29 17:09 | 41.48823 | -73.82108 | 32993 ft | 438 kts | 348° |
| 2026-04-29 17:10 | 41.54956 | -73.82483 | 32987 ft | 438 kts | 348° |
| 2026-04-29 17:10 | 41.61375 | -73.82880 | 32985 ft | 438 kts | 348° |
| 2026-04-29 17:11 | 41.67886 | -73.83282 | 32984 ft | 436 kts | 348° |
| 2026-04-29 17:11 | 41.73965 | -73.83666 | 32979 ft | 442 kts | 348° |
| 2026-04-29 17:12 | 41.80070 | -73.84049 | 32975 ft | 440 kts | 348° |
| 2026-04-29 17:12 | 41.85231 | -73.84369 | 32972 ft | 437 kts | 348° |
| 2026-04-29 17:13 | 41.92329 | -73.84811 | 32959 ft | 441 kts | 348° |
| 2026-04-29 17:13 | 41.98453 | -73.85199 | 32955 ft | 436 kts | 348° |
| 2026-04-29 17:14 | 42.04499 | -73.85576 | 32949 ft | 438 kts | 348° |
| 2026-04-29 17:14 | 42.10706 | -73.85971 | 32948 ft | 440 kts | 348° |
| 2026-04-29 17:15 | 42.16816 | -73.86359 | 32948 ft | 443 kts | 348° |
| 2026-04-29 17:15 | 42.22984 | -73.86742 | 32950 ft | 442 kts | 348° |
| 2026-04-29 17:16 | 42.29142 | -73.87137 | 32938 ft | 443 kts | 348° |
| 2026-04-29 17:16 | 42.35249 | -73.87528 | 32941 ft | 445 kts | 348° |
| 2026-04-29 17:17 | 42.41487 | -73.87400 | 32945 ft | 456 kts | 360° |
| 2026-04-29 17:17 | 42.44679 | -73.86298 | 32943 ft | 471 kts | 12° |
| 2026-04-29 17:17 | 42.47631 | -73.84346 | 32942 ft | 484 kts | 24° |
| 2026-04-29 17:18 | 42.52909 | -73.78534 | 32695 ft | 493 kts | 42° |
| 2026-04-29 17:18 | 42.54950 | -73.74847 | 32255 ft | 495 kts | 56° |
| 2026-04-29 17:18 | 42.56577 | -73.70697 | 31647 ft | 496 kts | 62° |
| 2026-04-29 17:19 | 42.58013 | -73.66436 | 30923 ft | 498 kts | 64° |
| 2026-04-29 17:19 | 42.59369 | -73.62141 | 30351 ft | 496 kts | 65° |
| 2026-04-29 17:19 | 42.60686 | -73.57865 | 29811 ft | 495 kts | 66° |
| 2026-04-29 17:19 | 42.62004 | -73.53566 | 29229 ft | 492 kts | 65° |
| 2026-04-29 17:20 | 42.63306 | -73.49336 | 28647 ft | 488 kts | 65° |
| 2026-04-29 17:20 | 42.64617 | -73.45118 | 28050 ft | 485 kts | 65° |
| 2026-04-29 17:20 | 42.65994 | -73.40725 | 27430 ft | 482 kts | 65° |
| 2026-04-29 17:20 | 42.67345 | -73.36444 | 26823 ft | 478 kts | 65° |
| 2026-04-29 17:21 | 42.68652 | -73.32316 | 26212 ft | 474 kts | 65° |
| 2026-04-29 17:21 | 42.69959 | -73.28204 | 25621 ft | 470 kts | 65° |
| 2026-04-29 17:21 | 42.71259 | -73.24125 | 25019 ft | 463 kts | 66° |
| 2026-04-29 17:21 | 42.72530 | -73.20144 | 24430 ft | 451 kts | 66° |
| 2026-04-29 17:22 | 42.73790 | -73.16192 | 23841 ft | 440 kts | 66° |
| 2026-04-29 17:22 | 42.75021 | -73.12334 | 23285 ft | 431 kts | 66° |
| 2026-04-29 17:22 | 42.76182 | -73.08522 | 22708 ft | 428 kts | 69° |
| 2026-04-29 17:22 | 42.77102 | -73.04710 | 22151 ft | 425 kts | 75° |
| 2026-04-29 17:23 | 42.77674 | -73.00771 | 21587 ft | 422 kts | 82° |
| 2026-04-29 17:23 | 42.77998 | -72.96845 | 21031 ft | 419 kts | 85° |
| 2026-04-29 17:23 | 42.78215 | -72.92872 | 20424 ft | 417 kts | 86° |
| 2026-04-29 17:23 | 42.78397 | -72.88923 | 19843 ft | 409 kts | 86° |
| 2026-04-29 17:24 | 42.78566 | -72.85095 | 19290 ft | 398 kts | 86° |
| 2026-04-29 17:24 | 42.78733 | -72.81314 | 18741 ft | 393 kts | 86° |
| 2026-04-29 17:24 | 42.78904 | -72.77458 | 18178 ft | 390 kts | 86° |
| 2026-04-29 17:24 | 42.79074 | -72.73783 | 17622 ft | 387 kts | 86° |
| 2026-04-29 17:25 | 42.79257 | -72.70088 | 17176 ft | 380 kts | 86° |
| 2026-04-29 17:25 | 42.79439 | -72.66582 | 16780 ft | 374 kts | 86° |
| 2026-04-29 17:25 | 42.79628 | -72.63023 | 16266 ft | 371 kts | 86° |
| 2026-04-29 17:25 | 42.79814 | -72.59526 | 15737 ft | 369 kts | 86° |
| 2026-04-29 17:26 | 42.80001 | -72.56072 | 15210 ft | 366 kts | 86° |
| 2026-04-29 17:26 | 42.80186 | -72.52599 | 14686 ft | 364 kts | 86° |
| 2026-04-29 17:26 | 42.80372 | -72.49110 | 14153 ft | 362 kts | 86° |
| 2026-04-29 17:26 | 42.80550 | -72.45699 | 13627 ft | 360 kts | 86° |
| 2026-04-29 17:27 | 42.80725 | -72.42304 | 13116 ft | 358 kts | 86° |
| 2026-04-29 17:27 | 42.80896 | -72.38926 | 12596 ft | 357 kts | 86° |
| 2026-04-29 17:27 | 42.81062 | -72.35573 | 12067 ft | 355 kts | 86° |
| 2026-04-29 17:27 | 42.81226 | -72.32214 | 11545 ft | 353 kts | 87° |
| 2026-04-29 17:28 | 42.81391 | -72.28899 | 11041 ft | 351 kts | 87° |
| 2026-04-29 17:28 | 42.81554 | -72.25584 | 10553 ft | 348 kts | 87° |
| 2026-04-29 17:28 | 42.81717 | -72.22343 | 10259 ft | 336 kts | 87° |
| 2026-04-29 17:28 | 42.81871 | -72.19272 | 10158 ft | 315 kts | 87° |
| 2026-04-29 17:29 | 42.82016 | -72.16341 | 10031 ft | 297 kts | 87° |
| 2026-04-29 17:29 | 42.82153 | -72.13621 | 9730 ft | 290 kts | 87° |
| 2026-04-29 17:29 | 42.82300 | -72.10849 | 9327 ft | 290 kts | 87° |
| 2026-04-29 17:29 | 42.82447 | -72.08120 | 8976 ft | 288 kts | 87° |
| 2026-04-29 17:30 | 42.82595 | -72.05399 | 8627 ft | 285 kts | 86° |
| 2026-04-29 17:30 | 42.82740 | -72.02740 | 8282 ft | 283 kts | 86° |
| 2026-04-29 17:30 | 42.82880 | -72.00091 | 7933 ft | 281 kts | 86° |
| 2026-04-29 17:30 | 42.83009 | -71.97430 | 7597 ft | 279 kts | 87° |
| 2026-04-29 17:31 | 42.83107 | -71.94825 | 7276 ft | 277 kts | 88° |
| 2026-04-29 17:31 | 42.83116 | -71.92219 | 7111 ft | 267 kts | 94° |
| 2026-04-29 17:31 | 42.82944 | -71.89729 | 6836 ft | 263 kts | 97° |
| 2026-04-29 17:31 | 42.82724 | -71.87286 | 6494 ft | 263 kts | 98° |
| 2026-04-29 17:32 | 42.82507 | -71.84827 | 6204 ft | 259 kts | 97° |
| 2026-04-29 17:32 | 42.82310 | -71.82463 | 6110 ft | 244 kts | 97° |
| 2026-04-29 17:32 | 42.82130 | -71.80240 | 5996 ft | 231 kts | 97° |
| 2026-04-29 17:32 | 42.81953 | -71.78098 | 5727 ft | 226 kts | 97° |
| 2026-04-29 17:33 | 42.81777 | -71.75992 | 5385 ft | 224 kts | 97° |
| 2026-04-29 17:33 | 42.81600 | -71.73894 | 5081 ft | 221 kts | 97° |
| 2026-04-29 17:33 | 42.81425 | -71.71838 | 4970 ft | 212 kts | 97° |
| 2026-04-29 17:33 | 42.81267 | -71.69933 | 5018 ft | 193 kts | 97° |
| 2026-04-29 17:34 | 42.81126 | -71.68162 | 4843 ft | 187 kts | 97° |
| 2026-04-29 17:34 | 42.80982 | -71.66407 | 4543 ft | 186 kts | 97° |
| 2026-04-29 17:34 | 42.80841 | -71.64658 | 4129 ft | 190 kts | 96° |
| 2026-04-29 17:34 | 42.80701 | -71.62869 | 3639 ft | 196 kts | 97° |
| 2026-04-29 17:35 | 42.80937 | -71.59822 | 3052 ft | 194 kts | 60° |
| 2026-04-29 17:35 | 42.82121 | -71.58172 | 3066 ft | 182 kts | 45° |
| 2026-04-29 17:35 | 42.83016 | -71.57037 | 2912 ft | 170 kts | 46° |
| 2026-04-29 17:36 | 42.83860 | -71.55977 | 2669 ft | 157 kts | 45° |
| 2026-04-29 17:36 | 42.84642 | -71.55028 | 2449 ft | 145 kts | 45° |
| 2026-04-29 17:36 | 42.85373 | -71.54117 | 2279 ft | 141 kts | 45° |
| 2026-04-29 17:36 | 42.86109 | -71.53201 | 2048 ft | 141 kts | 45° |
| 2026-04-29 17:37 | 42.86834 | -71.52316 | 1866 ft | 140 kts | 45° |
| 2026-04-29 17:37 | 42.87554 | -71.51425 | 1669 ft | 139 kts | 45° |
| 2026-04-29 17:37 | 42.88258 | -71.50543 | 1473 ft | 138 kts | 45° |
| 2026-04-29 17:37 | 42.88982 | -71.49654 | 1287 ft | 140 kts | 43° |
| 2026-04-29 17:38 | 42.89708 | -71.48772 | 1106 ft | 140 kts | 43° |
| 2026-04-29 17:38 | 42.90422 | -71.47886 | 918 ft | 139 kts | 44° |
| 2026-04-29 17:38 | 42.91135 | -71.47002 | 725 ft | 139 kts | 43° |
| 2026-04-29 17:38 | 42.91845 | -71.46129 | 534 ft | 138 kts | 43° |
| 2026-04-29 17:39 | 42.92561 | -71.45244 | 342 ft | 139 kts | 43° |
| 2026-04-29 17:39 | 42.93264 | -71.44370 | 224 ft | 121 kts | 43° |
| 2026-04-29 17:39 | 42.93686 | -71.43844 | 225 ft | 50 kts | 42° |
| 2026-04-29 17:39 | 42.93845 | -71.43645 | 228 ft | 19 kts | 43° |
| 2026-04-29 17:40 | 42.93893 | -71.43580 | 230 ft | 8 kts | 54° |
| 2026-04-29 17:40 | 42.93899 | -71.43508 | 231 ft | 6 kts | 116° |
| 2026-04-29 17:40 | 42.93867 | -71.43477 | 232 ft | 6 kts | 168° |
| 2026-04-29 17:40 | 42.93784 | -71.43478 | 231 ft | 14 kts | 185° |
| 2026-04-29 17:41 | 42.93677 | -71.43490 | 228 ft | 16 kts | 176° |
| 2026-04-29 17:41 | 42.93579 | -71.43441 | 229 ft | 14 kts | 155° |
| 2026-04-29 17:41 | 42.93491 | -71.43389 | 230 ft | 13 kts | 156° |
| 2026-04-29 17:41 | 42.93403 | -71.43338 | 231 ft | 14 kts | 156° |
| 2026-04-29 17:42 | 42.93314 | -71.43285 | 233 ft | 13 kts | 156° |
| 2026-04-29 17:42 | 42.93227 | -71.43233 | 235 ft | 13 kts | 155° |
| 2026-04-29 17:42 | 42.93144 | -71.43183 | 237 ft | 14 kts | 156° |
| 2026-04-29 17:42 | 42.93045 | -71.43126 | 236 ft | 16 kts | 156° |
| 2026-04-29 17:43 | 42.92932 | -71.43059 | 235 ft | 18 kts | 156° |
| 2026-04-29 17:43 | 42.92837 | -71.43003 | 235 ft | 14 kts | 161° |
| 2026-04-29 17:43 | 42.92763 | -71.43069 | 232 ft | 15 kts | 246° |
| 2026-04-29 17:43 | 42.92722 | -71.43208 | 229 ft | 13 kts | 262° |
| 2026-04-29 17:44 | 42.92741 | -71.43322 | 229 ft | 12 kts | 268° |
| 2026-04-29 17:44 | 42.92737 | -71.43445 | 227 ft | 13 kts | 281° |
| 2026-04-29 17:44 | 42.92757 | -71.43534 | 226 ft | 6 kts | 288° |
| 2026-04-29 17:44 | 42.92765 | -71.43586 | 227 ft | 5 kts | 278° |
| 2026-04-29 17:45 | 42.92768 | -71.43622 | 227 ft | 1 kts | 276° |
| 2026-04-29 17:45 | 42.92768 | -71.43623 | 227 ft | 0 kts | 276° |